Time,TemperatureF,DewpointF,PressureIn,WindDirection,WindDirectionDegrees,WindSpeedMPH,WindSpeedGustMPH,Humidity,HourlyPrecipIn,Conditions,Clouds,dailyrainin,SoftwareType,DateUTC
2013-07-15 00:01:00,83.9,42.1,29.91,SW,219,3.5,3.5,23,0.00,CLR,,0.00,WeatherDisplay:10.37,2013-07-15 07:01:00,
2013-07-15 00:06:00,83.6,40.7,29.91,SW,218,4.6,4.6,22,0.00,CLR,,0.00,WeatherDisplay:10.37,2013-07-15 07:06:00,
2013-07-15 00:11:00,83.7,42.0,29.90,WSW,256,6.0,6.0,23,0.00,CLR,,0.00,WeatherDisplay:10.37,2013-07-15 07:11:00,
2013-07-15 00:16:00,83.9,41.0,29.90,SW,214,5.8,5.8,22,0.00,CLR,,0.00,WeatherDisplay:10.37,2013-07-15 07:16:00,
2013-07-15 00:21:00,84.1,39.9,29.90,WNW,303,12.0,12.0,21,0.00,CLR,,0.00,WeatherDisplay:10.37,2013-07-15 07:21:00,
2013-07-15 00:26:00,84.7,41.6,29.91,WSW,246,9.2,9.2,22,0.00,CLR,,0.00,WeatherDisplay:10.37,2013-07-15 07:26:00,
2013-07-15 00:31:00,83.4,40.6,29.91,SW,223,5.8,5.8,22,0.00,CLR,,0.00,WeatherDisplay:10.37,2013-07-15 07:31:00,
2013-07-15 00:36:00,82.5,41.0,29.91,SW,223,5.8,5.8,23,0.00,CLR,,0.00,WeatherDisplay:10.37,2013-07-15 07:36:00,
2013-07-15 00:41:00,81.9,41.6,29.90,SW,222,4.0,4.0,24,0.00,CLR,,0.00,WeatherDisplay:10.37,2013-07-15 07:41:00,
2013-07-15 00:46:00,81.4,40.0,29.91,South,172,4.6,4.6,23,0.00,CLR,,0.00,WeatherDisplay:10.37,2013-07-15 07:46:00,
2013-07-15 00:51:00,80.7,39.4,29.91,South,172,3.5,3.5,23,0.00,CLR,,0.00,WeatherDisplay:10.37,2013-07-15 07:51:00,
2013-07-15 00:56:00,79.8,39.8,29.91,South,172,4.6,4.6,24,0.00,CLR,,0.00,WeatherDisplay:10.37,2013-07-15 07:56:00,
2013-07-15 01:01:00,79.1,39.2,29.91,South,172,2.3,2.3,24,0.00,CLR,,0.00,WeatherDisplay:10.37,2013-07-15 08:01:00,
2013-07-15 01:06:00,78.5,38.7,29.91,South,172,0.0,0.0,24,0.00,CLR,,0.00,WeatherDisplay:10.37,2013-07-15 08:06:00,
2013-07-15 01:11:00,78.2,38.4,29.90,South,172,1.0,1.3,24,0.00,CLR,,0.00,WeatherDisplay:10.37,2013-07-15 08:11:00,
2013-07-15 01:16:00,78.5,38.7,29.90,South,172,0.0,0.0,24,0.00,CLR,,0.00,WeatherDisplay:10.37,2013-07-15 08:16:00,
2013-07-15 01:21:00,78.7,38.9,29.90,South,172,0.0,0.0,24,0.00,CLR,,0.00,WeatherDisplay:10.37,2013-07-15 08:21:00,
2013-07-15 01:26:00,78.7,37.8,29.90,South,173,0.0,0.0,23,0.00,CLR,,0.00,WeatherDisplay:10.37,2013-07-15 08:26:00,
2013-07-15 01:31:00,78.3,38.5,29.90,South,172,0.0,0.0,24,0.00,CLR,,0.00,WeatherDisplay:10.37,2013-07-15 08:31:00,
2013-07-15 01:36:00,78.1,38.4,29.91,South,172,0.0,0.0,24,0.00,CLR,,0.00,WeatherDisplay:10.37,2013-07-15 08:36:00,
2013-07-15 01:41:00,78.0,38.3,29.90,South,172,0.0,0.0,24,0.00,CLR,,0.00,WeatherDisplay:10.37,2013-07-15 08:41:00,
2013-07-15 01:46:00,77.7,38.0,29.90,South,172,0.0,0.0,24,0.00,CLR,,0.00,WeatherDisplay:10.37,2013-07-15 08:46:00,
2013-07-15 01:51:00,77.4,38.8,29.90,South,172,0.0,0.0,25,0.00,CLR,,0.00,WeatherDisplay:10.37,2013-07-15 08:51:00,
2013-07-15 01:56:00,76.9,38.4,29.90,South,172,0.0,0.0,25,0.00,CLR,,0.00,WeatherDisplay:10.37,2013-07-15 08:56:00,
2013-07-15 02:01:00,76.4,38.0,29.90,South,172,0.0,0.0,25,0.00,CLR,,0.00,WeatherDisplay:10.37,2013-07-15 09:01:00,
2013-07-15 02:06:00,76.1,37.7,29.90,South,172,0.0,0.0,25,0.00,CLR,,0.00,WeatherDisplay:10.37,2013-07-15 09:06:00,
2013-07-15 02:11:00,76.0,37.6,29.90,South,172,0.0,0.0,25,0.00,CLR,,0.00,WeatherDisplay:10.37,2013-07-15 09:11:00,
2013-07-15 02:16:00,75.9,37.5,29.90,South,172,0.0,0.0,25,0.00,CLR,,0.00,WeatherDisplay:10.37,2013-07-15 09:16:00,
2013-07-15 02:21:00,76.0,37.6,29.90,South,172,0.0,0.0,25,0.00,CLR,,0.00,WeatherDisplay:10.37,2013-07-15 09:21:00,
2013-07-15 02:26:00,76.3,37.9,29.90,South,172,0.0,0.0,25,0.00,CLR,,0.00,WeatherDisplay:10.37,2013-07-15 09:26:00,
2013-07-15 02:31:00,76.4,38.0,29.90,South,172,0.0,0.0,25,0.00,CLR,,0.00,WeatherDisplay:10.37,2013-07-15 09:31:00,
2013-07-15 02:36:00,76.2,37.8,29.90,South,172,0.0,0.0,25,0.00,CLR,,0.00,WeatherDisplay:10.37,2013-07-15 09:36:00,
2013-07-15 02:41:00,76.0,37.6,29.90,South,173,0.0,0.0,25,0.00,CLR,,0.00,WeatherDisplay:10.37,2013-07-15 09:41:00,
2013-07-15 02:46:00,75.8,38.5,29.90,South,172,0.0,0.0,26,0.00,CLR,,0.00,WeatherDisplay:10.37,2013-07-15 09:46:00,
2013-07-15 02:51:00,75.6,38.3,29.90,South,172,0.0,0.0,26,0.00,CLR,,0.00,WeatherDisplay:10.37,2013-07-15 09:51:00,
2013-07-15 02:56:00,75.5,38.2,29.90,South,172,0.0,0.0,26,0.00,CLR,,0.00,WeatherDisplay:10.37,2013-07-15 09:56:00,
2013-07-15 03:01:00,75.4,38.1,29.90,South,172,0.0,0.0,26,0.00,CLR,,0.00,WeatherDisplay:10.37,2013-07-15 10:01:00,
2013-07-15 03:06:00,75.2,37.9,29.90,South,173,0.0,0.0,26,0.00,CLR,,0.00,WeatherDisplay:10.37,2013-07-15 10:06:00,
2013-07-15 03:11:00,75.1,38.8,29.90,South,173,2.3,2.3,27,0.00,CLR,,0.00,WeatherDisplay:10.37,2013-07-15 10:11:00,
2013-07-15 03:16:00,75.2,37.9,29.89,South,172,3.5,3.5,26,0.00,CLR,,0.00,WeatherDisplay:10.37,2013-07-15 10:16:00,
2013-07-15 03:21:00,75.3,38.0,29.89,South,172,3.5,3.5,26,0.00,CLR,,0.00,WeatherDisplay:10.37,2013-07-15 10:21:00,
2013-07-15 03:26:00,75.3,37.0,29.89,South,173,3.5,3.5,25,0.00,CLR,,0.00,WeatherDisplay:10.37,2013-07-15 10:26:00,
2013-07-15 03:31:00,75.3,37.0,29.90,South,172,4.0,4.0,25,0.00,CLR,,0.00,WeatherDisplay:10.37,2013-07-15 10:31:00,
2013-07-15 03:36:00,75.3,37.0,29.90,South,172,5.8,5.8,25,0.00,CLR,,0.00,WeatherDisplay:10.37,2013-07-15 10:36:00,
2013-07-15 03:41:00,75.7,36.3,29.89,South,173,9.2,9.2,24,0.00,CLR,,0.00,WeatherDisplay:10.37,2013-07-15 10:41:00,
2013-07-15 03:46:00,75.9,36.5,29.89,South,173,5.8,5.8,24,0.00,CLR,,0.00,WeatherDisplay:10.37,2013-07-15 10:46:00,
2013-07-15 03:51:00,76.1,36.7,29.89,South,173,6.0,6.0,24,0.00,CLR,,0.00,WeatherDisplay:10.37,2013-07-15 10:51:00,
2013-07-15 03:56:00,76.2,36.8,29.89,South,172,6.9,6.9,24,0.00,CLR,,0.00,WeatherDisplay:10.37,2013-07-15 10:56:00,
2013-07-15 04:01:00,76.1,36.7,29.89,South,172,6.9,6.9,24,0.00,CLR,,0.00,WeatherDisplay:10.37,2013-07-15 11:01:00,
2013-07-15 04:06:00,75.9,36.5,29.89,South,172,4.6,4.6,24,0.00,CLR,,0.00,WeatherDisplay:10.37,2013-07-15 11:06:00,
2013-07-15 04:11:00,75.7,36.3,29.89,South,173,6.0,6.0,24,0.00,CLR,,0.00,WeatherDisplay:10.37,2013-07-15 11:11:00,
2013-07-15 04:16:00,75.4,36.1,29.89,South,173,5.8,5.8,24,0.00,CLR,,0.00,WeatherDisplay:10.37,2013-07-15 11:16:00,
2013-07-15 04:21:00,75.1,36.9,29.89,South,173,5.8,5.8,25,0.00,CLR,,0.00,WeatherDisplay:10.37,2013-07-15 11:21:00,
2013-07-15 04:26:00,74.8,36.6,29.89,South,173,5.8,5.8,25,0.00,CLR,,0.00,WeatherDisplay:10.37,2013-07-15 11:26:00,
2013-07-15 04:31:00,74.4,36.3,29.89,South,173,5.8,5.8,25,0.00,CLR,,0.00,WeatherDisplay:10.37,2013-07-15 11:31:00,
2013-07-15 04:36:00,74.1,36.0,29.89,South,173,4.6,4.6,25,0.00,CLR,,0.00,WeatherDisplay:10.37,2013-07-15 11:36:00,
2013-07-15 04:41:00,73.9,36.8,29.89,South,173,4.0,4.0,26,0.00,CLR,,0.00,WeatherDisplay:10.37,2013-07-15 11:41:00,
2013-07-15 04:46:00,73.4,36.4,29.89,South,173,4.0,4.0,26,0.00,CLR,,0.00,WeatherDisplay:10.37,2013-07-15 11:46:00,
2013-07-15 04:51:00,73.1,36.2,29.89,South,172,4.6,4.6,26,0.00,CLR,,0.00,WeatherDisplay:10.37,2013-07-15 11:51:00,
2013-07-15 04:56:00,72.9,36.9,29.89,South,173,3.5,3.5,27,0.00,CLR,,0.00,WeatherDisplay:10.37,2013-07-15 11:56:00,
2013-07-15 05:01:00,72.7,36.8,29.89,South,173,2.3,2.3,27,0.00,CLR,,0.00,WeatherDisplay:10.37,2013-07-15 12:01:00,
2013-07-15 05:06:00,72.6,36.7,29.89,South,172,2.3,2.3,27,0.00,CLR,,0.00,WeatherDisplay:10.37,2013-07-15 12:06:00,
2013-07-15 05:11:00,72.4,36.5,29.90,South,172,2.3,2.3,27,0.00,CLR,,0.00,WeatherDisplay:10.37,2013-07-15 12:11:00,
2013-07-15 05:16:00,72.2,36.3,29.90,South,173,0.0,0.0,27,0.00,CLR,,0.00,WeatherDisplay:10.37,2013-07-15 12:16:00,
2013-07-15 05:21:00,72.1,37.2,29.90,South,173,2.3,2.3,28,0.00,CLR,,0.00,WeatherDisplay:10.37,2013-07-15 12:21:00,
2013-07-15 05:26:00,72.0,36.2,29.89,South,172,2.3,2.3,27,0.00,CLR,,0.00,WeatherDisplay:10.37,2013-07-15 12:26:00,
2013-07-15 05:31:00,71.9,37.0,29.90,South,173,2.3,2.3,28,0.00,CLR,,0.00,WeatherDisplay:10.37,2013-07-15 12:31:00,
2013-07-15 05:36:00,72.0,37.1,29.90,South,173,2.3,2.3,28,0.00,CLR,,0.00,WeatherDisplay:10.37,2013-07-15 12:36:00,
2013-07-15 05:41:00,72.4,37.4,29.90,South,172,0.0,0.0,28,0.00,CLR,,0.00,WeatherDisplay:10.37,2013-07-15 12:41:00,
2013-07-15 05:46:00,72.6,37.6,29.90,South,173,0.0,0.0,28,0.00,CLR,,0.00,WeatherDisplay:10.37,2013-07-15 12:46:00,
2013-07-15 05:51:00,72.8,37.8,29.90,South,173,0.0,0.0,28,0.00,CLR,,0.00,WeatherDisplay:10.37,2013-07-15 12:51:00,
2013-07-15 05:56:00,72.8,37.8,29.90,South,173,0.0,0.0,28,0.00,CLR,,0.00,WeatherDisplay:10.37,2013-07-15 12:56:00,
2013-07-15 06:01:00,72.7,37.7,29.90,South,173,0.0,0.0,28,0.00,CLR,,0.00,WeatherDisplay:10.37,2013-07-15 13:01:00,
2013-07-15 06:06:00,72.6,37.6,29.90,South,173,0.0,0.0,28,0.00,CLR,,0.00,WeatherDisplay:10.37,2013-07-15 13:06:00,
2013-07-15 06:11:00,72.7,37.7,29.90,South,173,0.0,0.0,28,0.00,CLR,,0.00,WeatherDisplay:10.37,2013-07-15 13:11:00,
2013-07-15 06:16:00,72.6,37.6,29.90,South,172,0.0,0.0,28,0.00,CLR,,0.00,WeatherDisplay:10.37,2013-07-15 13:16:00,
2013-07-15 06:21:00,72.7,37.7,29.90,South,172,0.0,0.0,28,0.00,CLR,,0.00,WeatherDisplay:10.37,2013-07-15 13:21:00,
2013-07-15 06:26:00,73.1,38.0,29.90,South,173,0.0,0.0,28,0.00,CLR,,0.00,WeatherDisplay:10.37,2013-07-15 13:26:00,
2013-07-15 06:31:00,73.3,38.2,29.90,South,173,0.0,0.0,28,0.00,CLR,,0.00,WeatherDisplay:10.37,2013-07-15 13:31:00,
2013-07-15 06:36:00,73.6,38.5,29.90,South,172,0.0,0.0,28,0.00,CLR,,0.00,WeatherDisplay:10.37,2013-07-15 13:36:00,
2013-07-15 06:41:00,73.9,39.6,29.90,South,172,0.0,0.0,29,0.00,CLR,,0.00,WeatherDisplay:10.37,2013-07-15 13:41:00,
2013-07-15 06:46:00,74.2,39.9,29.90,South,173,0.0,0.0,29,0.00,CLR,,0.00,WeatherDisplay:10.37,2013-07-15 13:46:00,
2013-07-15 06:51:00,74.7,39.4,29.90,South,172,0.0,0.0,28,0.00,CLR,,0.00,WeatherDisplay:10.37,2013-07-15 13:51:00,
2013-07-15 06:56:00,74.7,39.4,29.90,South,173,0.0,0.0,28,0.00,CLR,,0.00,WeatherDisplay:10.37,2013-07-15 13:56:00,
2013-07-15 07:01:00,74.5,38.3,29.90,South,173,1.2,1.2,27,0.00,CLR,,0.00,WeatherDisplay:10.37,2013-07-15 14:01:00,
2013-07-15 07:07:00,74.4,38.2,29.90,South,173,0.0,0.0,27,0.00,CLR,,0.00,WeatherDisplay:10.37,2013-07-15 14:07:00,
2013-07-15 07:12:00,74.7,39.4,29.91,South,172,0.0,0.0,28,0.00,CLR,,0.00,WeatherDisplay:10.37,2013-07-15 14:12:00,
2013-07-15 07:17:00,75.4,39.1,29.91,South,172,0.0,0.0,27,0.00,CLR,,0.00,WeatherDisplay:10.37,2013-07-15 14:17:00,
2013-07-15 07:22:00,75.9,39.5,29.91,South,173,0.0,0.0,27,0.00,CLR,,0.00,WeatherDisplay:10.37,2013-07-15 14:22:00,
2013-07-15 07:27:00,76.7,39.2,29.91,South,173,0.0,0.0,26,0.00,CLR,,0.00,WeatherDisplay:10.37,2013-07-15 14:27:00,
2013-07-15 07:32:00,77.4,38.8,29.91,South,173,0.0,0.0,25,0.00,CLR,,0.00,WeatherDisplay:10.37,2013-07-15 14:32:00,
2013-07-15 07:37:00,78.1,39.4,29.91,South,172,0.0,0.0,25,0.00,CLR,,0.00,WeatherDisplay:10.37,2013-07-15 14:37:00,
2013-07-15 07:42:00,78.7,39.9,29.91,South,173,0.0,0.0,25,0.00,CLR,,0.00,WeatherDisplay:10.37,2013-07-15 14:42:00,
2013-07-15 07:47:00,79.4,40.5,29.91,South,173,0.0,0.0,25,0.00,CLR,,0.00,WeatherDisplay:10.37,2013-07-15 14:47:00,
2013-07-15 07:52:00,80.1,41.1,29.91,South,172,0.0,0.0,25,0.00,CLR,,0.00,WeatherDisplay:10.37,2013-07-15 14:52:00,
2013-07-15 07:57:00,80.6,41.5,29.91,South,172,0.0,0.0,25,0.00,CLR,,0.00,WeatherDisplay:10.37,2013-07-15 14:57:00,
2013-07-15 08:02:00,80.9,40.7,29.91,South,173,0.0,0.0,24,0.00,CLR,,0.00,WeatherDisplay:10.37,2013-07-15 15:02:00,
2013-07-15 08:07:00,81.1,40.9,29.91,South,173,0.0,0.0,24,0.00,CLR,,0.00,WeatherDisplay:10.37,2013-07-15 15:07:00,
2013-07-15 08:12:00,81.4,41.1,29.91,South,172,2.3,2.3,24,0.00,CLR,,0.00,WeatherDisplay:10.37,2013-07-15 15:12:00,
2013-07-15 08:17:00,81.7,41.4,29.91,South,173,0.0,0.0,24,0.00,CLR,,0.00,WeatherDisplay:10.37,2013-07-15 15:17:00,
2013-07-15 08:22:00,82.2,41.8,29.91,South,173,0.0,0.0,24,0.00,CLR,,0.00,WeatherDisplay:10.37,2013-07-15 15:22:00,
2013-07-15 08:27:00,82.8,41.2,29.91,South,173,0.0,0.0,23,0.00,CLR,,0.00,WeatherDisplay:10.37,2013-07-15 15:27:00,
2013-07-15 08:32:00,83.9,42.1,29.91,South,173,0.0,0.0,23,0.00,CLR,,0.00,WeatherDisplay:10.37,2013-07-15 15:32:00,
2013-07-15 08:37:00,85.2,42.1,29.91,South,172,0.0,0.0,22,0.00,CLR,,0.00,WeatherDisplay:10.37,2013-07-15 15:37:00,
2013-07-15 08:42:00,85.9,42.6,29.91,South,172,0.0,0.0,22,0.00,CLR,,0.00,WeatherDisplay:10.37,2013-07-15 15:42:00,
2013-07-15 08:47:00,86.6,42.0,29.91,South,172,0.0,0.0,21,0.00,CLR,,0.00,WeatherDisplay:10.37,2013-07-15 15:47:00,
2013-07-15 08:52:00,86.8,40.9,29.91,South,172,3.0,3.0,20,0.00,CLR,,0.00,WeatherDisplay:10.37,2013-07-15 15:52:00,
2013-07-15 08:57:00,86.7,40.8,29.91,South,173,3.5,3.5,20,0.00,CLR,,0.00,WeatherDisplay:10.37,2013-07-15 15:57:00,
2013-07-15 09:02:00,87.1,41.2,29.90,South,173,3.0,3.0,20,0.00,CLR,,0.00,WeatherDisplay:10.37,2013-07-15 16:02:00,
2013-07-15 09:07:00,87.6,40.2,29.90,South,172,3.5,3.5,19,0.00,CLR,,0.00,WeatherDisplay:10.37,2013-07-15 16:07:00,
2013-07-15 09:12:00,87.7,40.3,29.90,South,172,2.3,0.0,19,0.00,CLR,,0.00,WeatherDisplay:10.37,2013-07-15 16:12:00,
2013-07-15 09:17:00,88.3,40.8,29.90,South,173,2.0,2.0,19,0.00,CLR,,0.00,WeatherDisplay:10.37,2013-07-15 16:17:00,
2013-07-15 09:22:00,88.9,41.3,29.90,South,173,3.5,3.5,19,0.00,CLR,,0.00,WeatherDisplay:10.37,2013-07-15 16:22:00,
2013-07-15 09:28:00,89.1,40.1,29.90,South,172,4.6,4.6,18,0.00,CLR,,0.00,WeatherDisplay:10.37,2013-07-15 16:28:00,
2013-07-15 09:33:00,89.4,41.7,29.90,South,172,1.2,0.0,19,0.00,CLR,,0.00,WeatherDisplay:10.37,2013-07-15 16:33:00,
2013-07-15 09:38:00,90.3,41.0,29.90,South,173,3.5,3.5,18,0.00,CLR,,0.00,WeatherDisplay:10.37,2013-07-15 16:38:00,
2013-07-15 09:43:00,90.1,40.9,29.90,South,173,3.5,3.5,18,0.00,CLR,,0.00,WeatherDisplay:10.37,2013-07-15 16:43:00,
2013-07-15 09:48:00,90.5,42.6,29.90,South,172,0.0,0.0,19,0.00,CLR,,0.00,WeatherDisplay:10.37,2013-07-15 16:48:00,
2013-07-15 09:53:00,91.7,42.2,29.90,South,173,0.0,0.0,18,0.00,CLR,,0.00,WeatherDisplay:10.37,2013-07-15 16:53:00,
2013-07-15 09:58:00,92.2,41.1,29.90,South,173,5.0,5.0,17,0.00,CLR,,0.00,WeatherDisplay:10.37,2013-07-15 16:58:00,
2013-07-15 10:03:00,91.8,42.3,29.90,South,172,0.0,0.0,18,0.00,CLR,,0.00,WeatherDisplay:10.37,2013-07-15 17:03:00,
2013-07-15 10:08:00,92.3,42.7,29.89,South,172,3.0,3.0,18,0.00,CLR,,0.00,WeatherDisplay:10.37,2013-07-15 17:08:00,
2013-07-15 10:13:00,92.5,42.8,29.89,South,173,5.0,5.0,18,0.00,CLR,,0.00,WeatherDisplay:10.37,2013-07-15 17:13:00,
2013-07-15 10:18:00,92.5,42.8,29.89,South,173,0.0,0.0,18,0.00,CLR,,0.00,WeatherDisplay:10.37,2013-07-15 17:18:00,
2013-07-15 10:23:00,93.0,43.2,29.89,South,173,5.8,5.8,18,0.00,CLR,,0.00,WeatherDisplay:10.37,2013-07-15 17:23:00,
2013-07-15 10:28:00,93.3,43.5,29.89,SSE,160,7.0,7.0,18,0.00,CLR,,0.00,WeatherDisplay:10.37,2013-07-15 17:28:00,
2013-07-15 10:33:00,93.6,42.2,29.89,WNW,298,11.5,11.5,17,0.00,CLR,,0.00,WeatherDisplay:10.37,2013-07-15 17:33:00,
2013-07-15 10:39:00,93.0,43.2,29.89,NNW,336,3.5,3.5,18,0.00,CLR,,0.00,WeatherDisplay:10.37,2013-07-15 17:39:00,
2013-07-15 10:45:00,92.8,43.1,29.89,West,259,5.8,5.8,18,0.00,CLR,,0.00,WeatherDisplay:10.37,2013-07-15 17:45:00,
2013-07-15 10:50:00,92.9,43.1,29.89,West,259,3.5,3.5,18,0.00,CLR,,0.00,WeatherDisplay:10.37,2013-07-15 17:50:00,
2013-07-15 10:55:00,93.5,43.6,29.88,SW,214,13.0,13.0,18,0.00,CLR,,0.00,WeatherDisplay:10.37,2013-07-15 17:55:00,
2013-07-15 11:00:00,94.1,44.1,29.88,SSE,157,12.0,12.0,18,0.00,CLR,,0.00,WeatherDisplay:10.37,2013-07-15 18:00:00,
2013-07-15 11:05:00,94.4,42.9,29.88,South,182,9.2,9.2,17,0.00,CLR,,0.00,WeatherDisplay:10.37,2013-07-15 18:05:00,
2013-07-15 11:10:00,94.5,42.9,29.88,South,182,10.4,10.4,17,0.00,CLR,,0.00,WeatherDisplay:10.37,2013-07-15 18:10:00,
2013-07-15 11:15:00,94.6,43.0,29.88,South,182,11.5,11.5,17,0.00,CLR,,0.00,WeatherDisplay:10.37,2013-07-15 18:15:00,
2013-07-15 11:20:00,95.1,43.4,29.88,South,182,7.0,7.0,17,0.00,CLR,,0.00,WeatherDisplay:10.37,2013-07-15 18:20:00,
2013-07-15 11:25:00,95.5,43.8,29.87,South,183,15.0,15.0,17,0.00,CLR,,0.00,WeatherDisplay:10.37,2013-07-15 18:25:00,
2013-07-15 11:30:00,95.3,43.6,29.87,South,180,15.0,15.0,17,0.00,CLR,,0.00,WeatherDisplay:10.37,2013-07-15 18:30:00,
2013-07-15 11:35:00,95.3,43.6,29.88,SSE,152,15.0,15.0,17,0.00,CLR,,0.00,WeatherDisplay:10.37,2013-07-15 18:35:00,
2013-07-15 11:40:00,95.3,43.6,29.87,SSE,157,6.9,6.9,17,0.00,CLR,,0.00,WeatherDisplay:10.37,2013-07-15 18:40:00,
2013-07-15 11:45:00,95.7,43.9,29.88,South,169,12.7,12.7,17,0.00,CLR,,0.00,WeatherDisplay:10.37,2013-07-15 18:45:00,
2013-07-15 11:50:00,95.3,43.6,29.88,South,169,16.1,16.1,17,0.00,CLR,,0.00,WeatherDisplay:10.37,2013-07-15 18:50:00,
2013-07-15 11:56:00,95.8,44.0,29.87,South,169,4.6,4.6,17,0.00,CLR,,0.00,WeatherDisplay:10.37,2013-07-15 18:56:00,
2013-07-15 12:01:00,95.9,44.1,29.87,South,188,12.7,12.7,17,0.00,CLR,,0.00,WeatherDisplay:10.37,2013-07-15 19:01:00,
2013-07-15 12:06:00,95.8,45.5,29.87,South,191,9.2,9.2,18,0.00,CLR,,0.00,WeatherDisplay:10.37,2013-07-15 19:06:00,
2013-07-15 12:11:00,96.4,46.0,29.87,South,170,6.9,6.9,18,0.00,CLR,,0.00,WeatherDisplay:10.37,2013-07-15 19:11:00,
2013-07-15 12:16:00,96.6,46.1,29.87,South,169,17.3,17.3,18,0.00,CLR,,0.00,WeatherDisplay:10.37,2013-07-15 19:16:00,
2013-07-15 12:21:00,97.1,45.0,29.87,South,170,15.0,15.0,17,0.00,CLR,,0.00,WeatherDisplay:10.37,2013-07-15 19:21:00,
2013-07-15 12:26:00,97.1,43.4,29.87,South,170,18.4,18.4,16,0.00,CLR,,0.00,WeatherDisplay:10.37,2013-07-15 19:26:00,
2013-07-15 12:31:00,96.6,46.1,29.87,South,170,15.0,15.0,18,0.00,CLR,,0.00,WeatherDisplay:10.37,2013-07-15 19:31:00,
2013-07-15 12:36:00,96.4,44.5,29.86,South,175,16.1,16.1,17,0.00,CLR,,0.00,WeatherDisplay:10.37,2013-07-15 19:36:00,
2013-07-15 12:41:00,96.8,44.8,29.86,South,175,18.4,18.4,17,0.00,CLR,,0.00,WeatherDisplay:10.37,2013-07-15 19:41:00,
2013-07-15 12:46:00,96.5,44.6,29.86,South,176,23.0,23.0,17,0.00,CLR,,0.00,WeatherDisplay:10.37,2013-07-15 19:46:00,
2013-07-15 12:51:00,96.7,44.7,29.86,South,177,20.0,20.0,17,0.00,CLR,,0.00,WeatherDisplay:10.37,2013-07-15 19:51:00,
2013-07-15 12:56:00,96.3,44.4,29.86,South,178,20.0,20.0,17,0.00,CLR,,0.00,WeatherDisplay:10.37,2013-07-15 19:56:00,
2013-07-15 13:01:00,96.2,44.3,29.86,South,178,18.4,18.4,17,0.00,CLR,,0.00,WeatherDisplay:10.37,2013-07-15 20:01:00,
2013-07-15 13:06:00,96.1,45.7,29.86,SSE,161,18.4,18.4,18,0.00,CLR,,0.00,WeatherDisplay:10.37,2013-07-15 20:06:00,
2013-07-15 13:11:00,95.7,45.4,29.86,SSE,161,19.6,19.6,18,0.00,CLR,,0.00,WeatherDisplay:10.37,2013-07-15 20:11:00,
2013-07-15 13:16:00,96.5,46.1,29.86,SSE,163,24.2,24.2,18,0.00,CLR,,0.00,WeatherDisplay:10.37,2013-07-15 20:16:00,
2013-07-15 13:21:00,96.6,46.1,29.86,SSE,163,19.6,19.6,18,0.00,CLR,,0.00,WeatherDisplay:10.37,2013-07-15 20:21:00,
2013-07-15 13:26:00,96.6,47.6,29.86,SSE,165,20.7,20.7,19,0.00,CLR,,0.00,WeatherDisplay:10.37,2013-07-15 20:26:00,
2013-07-15 13:31:00,96.5,47.5,29.86,South,184,21.9,21.9,19,0.00,CLR,,0.00,WeatherDisplay:10.37,2013-07-15 20:31:00,
2013-07-15 13:36:00,96.2,47.3,29.86,SSW,196,26.5,26.5,19,0.00,CLR,,0.00,WeatherDisplay:10.37,2013-07-15 20:36:00,
2013-07-15 13:41:00,96.5,46.1,29.85,SSW,196,19.6,19.6,18,0.00,CLR,,0.00,WeatherDisplay:10.37,2013-07-15 20:41:00,
2013-07-15 13:47:00,97.2,46.6,29.85,SSW,198,26.5,26.5,18,0.00,CLR,,0.00,WeatherDisplay:10.37,2013-07-15 20:47:00,
2013-07-15 13:52:00,97.1,46.5,29.85,SSW,200,26.5,26.5,18,0.00,CLR,,0.00,WeatherDisplay:10.37,2013-07-15 20:52:00,
2013-07-15 13:57:00,95.9,45.6,29.85,South,191,24.2,24.2,18,0.00,CLR,,0.00,WeatherDisplay:10.37,2013-07-15 20:57:00,
2013-07-15 14:03:00,96.2,45.8,29.85,SSW,199,26.5,26.5,18,0.00,CLR,,0.00,WeatherDisplay:10.37,2013-07-15 21:03:00,
2013-07-15 14:08:00,96.1,44.2,29.85,SSW,200,25.3,25.3,17,0.00,CLR,,0.00,WeatherDisplay:10.37,2013-07-15 21:08:00,
2013-07-15 14:13:00,96.8,44.8,29.85,SSW,200,23.0,23.0,17,0.00,CLR,,0.00,WeatherDisplay:10.37,2013-07-15 21:13:00,
2013-07-15 14:19:00,96.0,44.2,29.85,SSW,200,26.5,26.5,17,0.00,CLR,,0.00,WeatherDisplay:10.37,2013-07-15 21:19:00,
2013-07-15 14:24:00,95.9,44.1,29.85,SSW,201,27.6,27.6,17,0.00,CLR,,0.00,WeatherDisplay:10.37,2013-07-15 21:24:00,
2013-07-15 14:29:00,95.6,43.8,29.85,SSW,201,28.8,28.8,17,0.00,CLR,,0.00,WeatherDisplay:10.37,2013-07-15 21:29:00,
2013-07-15 14:34:00,95.8,44.0,29.85,South,186,26.5,26.5,17,0.00,CLR,,0.00,WeatherDisplay:10.37,2013-07-15 21:34:00,
2013-07-15 14:39:00,95.9,44.1,29.85,SSW,192,33.4,33.4,17,0.00,CLR,,0.00,WeatherDisplay:10.37,2013-07-15 21:39:00,
2013-07-15 14:44:00,96.1,44.2,29.85,SSE,167,27.6,27.6,17,0.00,CLR,,0.00,WeatherDisplay:10.37,2013-07-15 21:44:00,
2013-07-15 14:49:00,95.7,43.9,29.85,SSW,194,31.1,31.1,17,0.00,CLR,,0.00,WeatherDisplay:10.37,2013-07-15 21:49:00,
2013-07-15 14:54:00,96.0,44.2,29.85,SSW,194,22.0,22.0,17,0.00,CLR,,0.00,WeatherDisplay:10.37,2013-07-15 21:54:00,
2013-07-15 14:59:00,95.5,43.8,29.85,SSW,194,25.3,25.3,17,0.00,CLR,,0.00,WeatherDisplay:10.37,2013-07-15 21:59:00,
2013-07-15 15:04:00,95.7,43.9,29.85,SSW,194,31.1,31.1,17,0.00,CLR,,0.00,WeatherDisplay:10.37,2013-07-15 22:04:00,
2013-07-15 15:09:00,95.3,43.6,29.85,SSW,194,26.5,26.5,17,0.00,CLR,,0.00,WeatherDisplay:10.37,2013-07-15 22:09:00,
2013-07-15 15:14:00,95.2,43.5,29.84,SSW,194,33.4,33.4,17,0.00,CLR,,0.00,WeatherDisplay:10.37,2013-07-15 22:14:00,
2013-07-15 15:19:00,95.1,43.4,29.85,SSW,198,32.2,32.2,17,0.00,CLR,,0.00,WeatherDisplay:10.37,2013-07-15 22:19:00,
2013-07-15 15:24:00,95.8,44.0,29.85,SSW,198,28.8,28.8,17,0.00,CLR,,0.00,WeatherDisplay:10.37,2013-07-15 22:24:00,
2013-07-15 15:29:00,95.7,43.9,29.84,SSW,198,29.9,29.9,17,0.00,CLR,,0.00,WeatherDisplay:10.37,2013-07-15 22:29:00,
2013-07-15 15:34:00,95.3,45.1,29.84,SSW,197,26.5,26.5,18,0.00,CLR,,0.00,WeatherDisplay:10.37,2013-07-15 22:34:00,
2013-07-15 15:39:00,95.3,43.6,29.84,SSW,197,33.4,33.4,17,0.00,CLR,,0.00,WeatherDisplay:10.37,2013-07-15 22:39:00,
2013-07-15 15:44:00,95.0,43.4,29.84,SSW,198,29.9,29.9,17,0.00,CLR,,0.00,WeatherDisplay:10.37,2013-07-15 22:44:00,
2013-07-15 15:49:00,95.1,43.4,29.84,SSW,198,29.9,29.9,17,0.00,CLR,,0.00,WeatherDisplay:10.37,2013-07-15 22:49:00,
2013-07-15 15:54:00,94.7,44.6,29.84,SSW,198,33.4,33.4,18,0.00,CLR,,0.00,WeatherDisplay:10.37,2013-07-15 22:54:00,
2013-07-15 15:59:00,94.8,44.7,29.84,SSW,198,27.0,27.0,18,0.00,CLR,,0.00,WeatherDisplay:10.37,2013-07-15 22:59:00,
2013-07-15 16:04:00,94.1,42.6,29.84,SSW,196,28.8,28.8,17,0.00,CLR,,0.00,WeatherDisplay:10.37,2013-07-15 23:04:00,
2013-07-15 16:10:00,94.1,42.6,29.84,SSW,197,27.6,27.6,17,0.00,CLR,,0.00,WeatherDisplay:10.37,2013-07-15 23:10:00,
2013-07-15 16:15:00,94.0,42.5,29.84,SSW,197,24.2,24.2,17,0.00,CLR,,0.00,WeatherDisplay:10.37,2013-07-15 23:15:00,
2013-07-15 16:20:00,94.1,44.1,29.83,SSW,197,27.6,27.6,18,0.00,CLR,,0.00,WeatherDisplay:10.37,2013-07-15 23:20:00,
2013-07-15 16:25:00,93.7,43.8,29.84,SSW,192,28.8,28.8,18,0.00,CLR,,0.00,WeatherDisplay:10.37,2013-07-15 23:25:00,
2013-07-15 16:31:00,93.7,43.8,29.83,SSW,192,23.0,23.0,18,0.00,CLR,,0.00,WeatherDisplay:10.37,2013-07-15 23:31:00,
2013-07-15 16:36:00,94.2,44.2,29.83,SSW,192,26.5,26.5,18,0.00,CLR,,0.00,WeatherDisplay:10.37,2013-07-15 23:36:00,
2013-07-15 16:41:00,94.0,42.5,29.83,SSW,192,27.6,27.6,17,0.00,CLR,,0.00,WeatherDisplay:10.37,2013-07-15 23:41:00,
2013-07-15 16:46:00,93.6,43.7,29.83,SSW,192,27.6,27.6,18,0.00,CLR,,0.00,WeatherDisplay:10.37,2013-07-15 23:46:00,
2013-07-15 16:51:00,93.6,43.7,29.83,South,191,24.2,24.2,18,0.00,CLR,,0.00,WeatherDisplay:10.37,2013-07-15 23:51:00,
2013-07-15 16:56:00,93.4,43.6,29.83,SSW,192,29.9,29.9,18,0.00,CLR,,0.00,WeatherDisplay:10.37,2013-07-15 23:56:00,
2013-07-15 17:01:00,93.0,43.2,29.83,SSW,192,28.8,28.8,18,0.00,CLR,,0.00,WeatherDisplay:10.37,2013-07-16 00:01:00,
2013-07-15 17:06:00,92.9,43.1,29.83,South,191,27.6,27.6,18,0.00,CLR,,0.00,WeatherDisplay:10.37,2013-07-16 00:06:00,
2013-07-15 17:11:00,92.6,42.9,29.83,SSW,192,33.4,33.4,18,0.00,CLR,,0.00,WeatherDisplay:10.37,2013-07-16 00:11:00,
2013-07-15 17:16:00,92.6,42.9,29.83,SSW,192,26.5,26.5,18,0.00,CLR,,0.00,WeatherDisplay:10.37,2013-07-16 00:16:00,
2013-07-15 17:21:00,93.0,43.2,29.83,SSW,192,24.2,24.2,18,0.00,CLR,,0.00,WeatherDisplay:10.37,2013-07-16 00:21:00,
2013-07-15 17:26:00,92.4,42.7,29.83,SSW,192,25.3,25.3,18,0.00,CLR,,0.00,WeatherDisplay:10.37,2013-07-16 00:26:00,
2013-07-15 17:31:00,92.2,42.6,29.83,SSW,192,27.6,27.6,18,0.00,CLR,,0.00,WeatherDisplay:10.37,2013-07-16 00:31:00,
2013-07-15 17:36:00,92.4,42.7,29.83,SSW,192,29.9,29.9,18,0.00,CLR,,0.00,WeatherDisplay:10.37,2013-07-16 00:36:00,
2013-07-15 17:42:00,92.2,42.6,29.83,SSW,192,31.1,31.1,18,0.00,CLR,,0.00,WeatherDisplay:10.37,2013-07-16 00:42:00,
2013-07-15 17:47:00,92.0,42.4,29.83,SSW,192,24.2,24.2,18,0.00,CLR,,0.00,WeatherDisplay:10.37,2013-07-16 00:47:00,
2013-07-15 17:52:00,91.9,42.3,29.83,SSW,192,26.5,26.5,18,0.00,CLR,,0.00,WeatherDisplay:10.37,2013-07-16 00:52:00,
2013-07-15 17:57:00,91.6,42.1,29.82,SSW,193,33.4,33.4,18,0.00,CLR,,0.00,WeatherDisplay:10.37,2013-07-16 00:57:00,
2013-07-15 18:03:00,91.8,42.3,29.82,SSW,193,27.6,27.6,18,0.00,CLR,,0.00,WeatherDisplay:10.37,2013-07-16 01:03:00,
2013-07-15 18:08:00,91.5,42.0,29.83,SSW,192,26.5,26.5,18,0.00,CLR,,0.00,WeatherDisplay:10.37,2013-07-16 01:08:00,
2013-07-15 18:13:00,91.2,43.2,29.83,SSW,193,23.0,23.0,19,0.00,CLR,,0.00,WeatherDisplay:10.37,2013-07-16 01:13:00,
2013-07-15 18:18:00,90.9,42.9,29.83,SSW,193,26.5,26.5,19,0.00,CLR,,0.00,WeatherDisplay:10.37,2013-07-16 01:18:00,
2013-07-15 18:23:00,90.5,42.6,29.83,SSW,192,26.5,26.5,19,0.00,CLR,,0.00,WeatherDisplay:10.37,2013-07-16 01:23:00,
2013-07-15 18:28:00,90.4,42.5,29.83,SSW,192,27.6,27.6,19,0.00,CLR,,0.00,WeatherDisplay:10.37,2013-07-16 01:28:00,
2013-07-15 18:33:00,90.3,42.4,29.82,SSW,192,27.6,27.6,19,0.00,CLR,,0.00,WeatherDisplay:10.37,2013-07-16 01:33:00,
2013-07-15 18:38:00,90.2,42.4,29.82,SSW,193,24.2,24.2,19,0.00,CLR,,0.00,WeatherDisplay:10.37,2013-07-16 01:38:00,
2013-07-15 18:43:00,89.9,42.1,29.83,SSW,193,28.8,28.8,19,0.00,CLR,,0.00,WeatherDisplay:10.37,2013-07-16 01:43:00,
2013-07-15 18:48:00,89.5,41.8,29.83,SSW,192,26.5,26.5,19,0.00,CLR,,0.00,WeatherDisplay:10.37,2013-07-16 01:48:00,
2013-07-15 18:53:00,89.4,41.7,29.83,SSW,193,26.5,26.5,19,0.00,CLR,,0.00,WeatherDisplay:10.37,2013-07-16 01:53:00,
2013-07-15 18:58:00,89.1,41.5,29.83,SSW,193,27.6,27.6,19,0.00,CLR,,0.00,WeatherDisplay:10.37,2013-07-16 01:58:00,
2013-07-15 19:03:00,89.0,41.4,29.83,SSW,193,26.5,26.5,19,0.00,CLR,,0.00,WeatherDisplay:10.37,2013-07-16 02:03:00,
2013-07-15 19:08:00,88.8,41.2,29.83,SSW,193,21.9,21.9,19,0.00,CLR,,0.00,WeatherDisplay:10.37,2013-07-16 02:08:00,
2013-07-15 19:13:00,88.6,42.4,29.83,SSW,192,19.6,19.6,20,0.00,CLR,,0.00,WeatherDisplay:10.37,2013-07-16 02:13:00,
2013-07-15 19:18:00,88.0,41.9,29.84,SSW,193,20.0,20.0,20,0.00,CLR,,0.00,WeatherDisplay:10.37,2013-07-16 02:18:00,
2013-07-15 19:23:00,87.5,41.5,29.84,SSW,193,23.0,23.0,20,0.00,CLR,,0.00,WeatherDisplay:10.37,2013-07-16 02:23:00,
2013-07-15 19:28:00,87.2,41.2,29.84,SSW,192,20.7,20.7,20,0.00,CLR,,0.00,WeatherDisplay:10.37,2013-07-16 02:28:00,
2013-07-15 19:33:00,86.7,42.1,29.84,SSW,193,18.4,18.4,21,0.00,CLR,,0.00,WeatherDisplay:10.37,2013-07-16 02:33:00,
2013-07-15 19:39:00,86.2,41.7,29.84,SSW,193,21.9,21.9,21,0.00,CLR,,0.00,WeatherDisplay:10.37,2013-07-16 02:39:00,
2013-07-15 19:44:00,85.7,40.0,29.85,SSW,193,19.6,19.6,20,0.00,CLR,,0.00,WeatherDisplay:10.37,2013-07-16 02:44:00,
2013-07-15 19:49:00,85.1,39.5,29.84,SSW,192,23.0,23.0,20,0.00,CLR,,0.00,WeatherDisplay:10.37,2013-07-16 02:49:00,
2013-07-15 19:54:00,84.6,39.1,29.84,SSW,193,20.7,20.7,20,0.00,CLR,,0.00,WeatherDisplay:10.37,2013-07-16 02:54:00,
2013-07-15 19:59:00,84.2,38.8,29.84,SSW,192,19.6,19.6,20,0.00,CLR,,0.00,WeatherDisplay:10.37,2013-07-16 02:59:00,
2013-07-15 20:04:00,83.9,38.5,29.85,SSW,192,19.6,19.6,20,0.00,CLR,,0.00,WeatherDisplay:10.37,2013-07-16 03:04:00,
2013-07-15 20:09:00,83.5,38.2,29.85,SSW,192,15.0,15.0,20,0.00,CLR,,0.00,WeatherDisplay:10.37,2013-07-16 03:09:00,
2013-07-15 20:14:00,83.2,37.9,29.85,SSW,192,16.1,16.1,20,0.00,CLR,,0.00,WeatherDisplay:10.37,2013-07-16 03:14:00,
2013-07-15 20:19:00,82.9,37.7,29.85,SSW,192,17.3,17.3,20,0.00,CLR,,0.00,WeatherDisplay:10.37,2013-07-16 03:19:00,
2013-07-15 20:24:00,82.6,37.5,29.85,SSW,192,19.6,19.6,20,0.00,CLR,,0.00,WeatherDisplay:10.37,2013-07-16 03:24:00,
2013-07-15 20:29:00,82.3,37.2,29.85,SSW,192,13.8,13.8,20,0.00,CLR,,0.00,WeatherDisplay:10.37,2013-07-16 03:29:00,
2013-07-15 20:34:00,81.8,38.0,29.85,SSW,192,11.5,11.5,21,0.00,CLR,,0.00,WeatherDisplay:10.37,2013-07-16 03:34:00,
2013-07-15 20:39:00,81.4,37.7,29.86,SSW,192,12.7,12.7,21,0.00,CLR,,0.00,WeatherDisplay:10.37,2013-07-16 03:39:00,
2013-07-15 20:44:00,81.0,37.4,29.86,SSW,192,12.7,12.7,21,0.00,CLR,,0.00,WeatherDisplay:10.37,2013-07-16 03:44:00,
2013-07-15 20:49:00,80.6,37.0,29.86,SSW,192,11.5,11.5,21,0.00,CLR,,0.00,WeatherDisplay:10.37,2013-07-16 03:49:00,
2013-07-15 20:55:00,80.1,36.6,29.86,SSW,193,11.5,11.5,21,0.00,CLR,,0.00,WeatherDisplay:10.37,2013-07-16 03:55:00,
2013-07-15 21:00:00,79.8,36.4,29.86,SSW,193,11.5,11.5,21,0.00,CLR,,0.00,WeatherDisplay:10.37,2013-07-16 04:00:00,
2013-07-15 21:01:00,79.8,36.4,29.86,SSW,192,11.5,11.5,21,0.00,CLR,,0.00,WeatherDisplay:10.37,2013-07-16 04:01:00,
2013-07-15 21:02:00,79.8,36.4,29.86,SSW,192,11.5,11.5,21,0.00,CLR,,0.00,WeatherDisplay:10.37,2013-07-16 04:02:00,
2013-07-15 21:03:00,79.7,36.3,29.86,SSW,192,11.5,11.5,21,0.00,CLR,,0.00,WeatherDisplay:10.37,2013-07-16 04:03:00,
2013-07-15 21:08:00,79.2,37.1,29.86,SSW,192,10.4,10.4,22,0.00,CLR,,0.00,WeatherDisplay:10.37,2013-07-16 04:08:00,
2013-07-15 21:13:00,78.8,36.7,29.87,SSW,192,11.5,11.5,22,0.00,CLR,,0.00,WeatherDisplay:10.37,2013-07-16 04:13:00,
2013-07-15 21:18:00,78.6,36.6,29.87,SSW,192,12.7,12.7,22,0.00,CLR,,0.00,WeatherDisplay:10.37,2013-07-16 04:18:00,
2013-07-15 21:23:00,78.3,36.3,29.87,SSW,192,11.5,11.5,22,0.00,CLR,,0.00,WeatherDisplay:10.37,2013-07-16 04:23:00,
2013-07-15 21:28:00,77.6,35.7,29.87,SSW,192,11.5,11.5,22,0.00,CLR,,0.00,WeatherDisplay:10.37,2013-07-16 04:28:00,
2013-07-15 21:33:00,77.0,36.3,29.88,SSW,192,11.5,11.5,23,0.00,CLR,,0.00,WeatherDisplay:10.37,2013-07-16 04:33:00,
2013-07-15 21:38:00,76.4,36.9,29.88,SSW,192,13.8,13.8,24,0.00,CLR,,0.00,WeatherDisplay:10.37,2013-07-16 04:38:00,
2013-07-15 21:43:00,75.9,37.5,29.88,SSW,192,11.5,11.5,25,0.00,CLR,,0.00,WeatherDisplay:10.37,2013-07-16 04:43:00,
2013-07-15 21:48:00,75.5,38.2,29.88,SSW,192,13.8,13.8,26,0.00,CLR,,0.00,WeatherDisplay:10.37,2013-07-16 04:48:00,
2013-07-15 21:53:00,75.2,37.9,29.88,SSW,192,11.5,11.5,26,0.00,CLR,,0.00,WeatherDisplay:10.37,2013-07-16 04:53:00,
2013-07-15 22:05:00,75.7,36.3,29.88,SSW,192,16.0,16.0,24,0.00,CLR,,0.00,WeatherDisplay:10.37,2013-07-16 05:05:00,
2013-07-15 22:10:00,75.7,36.3,29.89,SSW,192,16.1,16.1,24,0.00,CLR,,0.00,WeatherDisplay:10.37,2013-07-16 05:10:00,
2013-07-15 22:15:00,75.5,36.2,29.89,SSW,192,15.0,15.0,24,0.00,CLR,,0.00,WeatherDisplay:10.37,2013-07-16 05:15:00,
2013-07-15 22:20:00,75.2,35.9,29.88,SSW,192,11.5,11.5,24,0.00,CLR,,0.00,WeatherDisplay:10.37,2013-07-16 05:20:00,
2013-07-15 22:25:00,74.9,35.7,29.88,SSW,192,11.5,11.5,24,0.00,CLR,,0.00,WeatherDisplay:10.37,2013-07-16 05:25:00,
2013-07-15 22:30:00,75.1,35.8,29.88,SSW,192,11.5,11.5,24,0.00,CLR,,0.00,WeatherDisplay:10.37,2013-07-16 05:30:00,
2013-07-15 22:35:00,75.1,35.8,29.89,SSW,192,9.2,9.2,24,0.00,CLR,,0.00,WeatherDisplay:10.37,2013-07-16 05:35:00,
2013-07-15 22:40:00,74.9,35.7,29.89,SSW,192,11.5,11.5,24,0.00,CLR,,0.00,WeatherDisplay:10.37,2013-07-16 05:40:00,
2013-07-15 22:45:00,74.9,35.7,29.89,SSW,192,11.5,11.5,24,0.00,CLR,,0.00,WeatherDisplay:10.37,2013-07-16 05:45:00,
2013-07-15 22:50:00,75.1,35.8,29.89,SSW,192,15.0,15.0,24,0.00,CLR,,0.00,WeatherDisplay:10.37,2013-07-16 05:50:00,
2013-07-15 22:55:00,75.3,36.0,29.89,SSW,192,13.8,13.8,24,0.00,CLR,,0.00,WeatherDisplay:10.37,2013-07-16 05:55:00,
2013-07-15 23:00:00,75.1,35.8,29.88,SSW,192,16.1,16.1,24,0.00,CLR,,0.00,WeatherDisplay:10.37,2013-07-16 06:00:00,
2013-07-15 23:05:00,74.9,35.7,29.88,SSW,192,16.1,16.1,24,0.00,CLR,,0.00,WeatherDisplay:10.37,2013-07-16 06:05:00,
2013-07-15 23:10:00,74.5,35.3,29.88,SSW,192,14.0,14.0,24,0.00,CLR,,0.00,WeatherDisplay:10.37,2013-07-16 06:10:00,
2013-07-15 23:15:00,73.9,34.8,29.88,SSW,192,12.7,12.7,24,0.00,CLR,,0.00,WeatherDisplay:10.37,2013-07-16 06:15:00,
2013-07-15 23:20:00,73.5,34.5,29.88,SSW,192,12.7,12.7,24,0.00,CLR,,0.00,WeatherDisplay:10.37,2013-07-16 06:20:00,
2013-07-15 23:25:00,73.3,34.3,29.89,SSW,192,11.5,11.5,24,0.00,CLR,,0.00,WeatherDisplay:10.37,2013-07-16 06:25:00,
2013-07-15 23:30:00,73.1,33.1,29.89,SSW,192,6.9,6.9,23,0.00,CLR,,0.00,WeatherDisplay:10.37,2013-07-16 06:30:00,
2013-07-15 23:35:00,72.9,34.0,29.89,SSW,192,7.0,7.0,24,0.00,CLR,,0.00,WeatherDisplay:10.37,2013-07-16 06:35:00,
2013-07-15 23:40:00,72.9,34.0,29.89,SSW,192,8.1,8.1,24,0.00,CLR,,0.00,WeatherDisplay:10.37,2013-07-16 06:40:00,
2013-07-15 23:45:00,73.0,34.1,29.89,SSW,192,9.2,9.2,24,0.00,CLR,,0.00,WeatherDisplay:10.37,2013-07-16 06:45:00,
2013-07-15 23:50:00,72.8,34.9,29.89,SSW,192,7.0,7.0,25,0.00,CLR,,0.00,WeatherDisplay:10.37,2013-07-16 06:50:00,
2013-07-15 23:55:00,72.4,36.5,29.89,SSW,192,6.9,6.9,27,0.00,CLR,,0.00,WeatherDisplay:10.37,2013-07-16 06:55:00,